Time;durP1;ratioP1;P1;durP2;ratioP2;P2;SDS_P1;SDS_P2;PMS_P1;PMS_P2;Temp;Humidity;BMP_temperature;BMP_pressure;BME280_temperature;BME280_humidity;BME280_pressure;Samples;Min_cycle;Max_cycle;Signal;HPM_P1;HPM_P2
2023/07/08 00:00:29;;;;;;;3.00;2.42;;;;;;;;;;5093082;28;20072;-64
2023/07/08 00:02:55;;;;;;;5.38;2.80;;;;;;;;;;5087986;28;20055;-64
2023/07/08 00:05:22;;;;;;;4.82;2.75;;;;;;;;;;5102770;27;20044;-63
2023/07/08 00:07:49;;;;;;;5.43;2.67;;;;;;;;;;5088687;27;20059;-65
2023/07/08 00:10:23;;;;;;;3.78;2.45;;;;;;;;;;5098842;28;20056;-63
2023/07/08 00:12:50;;;;;;;2.88;2.40;;;;;;;;;;5099080;28;20044;-65
2023/07/08 00:15:17;;;;;;;4.97;2.50;;;;;;;;;;5083822;27;20063;-65
2023/07/08 00:17:44;;;;;;;3.65;2.03;;;;;;;;;;5082578;28;20049;-64
2023/07/08 00:20:13;;;;;;;3.03;2.67;;;;;;;;;;5083231;28;20139;-65
2023/07/08 00:22:41;;;;;;;3.63;2.53;;;;;;;;;;5092721;27;20585;-65
2023/07/08 00:25:08;;;;;;;5.72;3.00;;;;;;;;;;5082204;28;20061;-65
2023/07/08 00:27:34;;;;;;;3.42;2.05;;;;;;;;;;5082169;28;20102;-63
2023/07/08 00:30:01;;;;;;;2.95;2.00;;;;;;;;;;5082866;28;20114;-63
2023/07/08 00:32:27;;;;;;;8.70;2.25;;;;;;;;;;5097774;27;20067;-65
2023/07/08 00:34:54;;;;;;;2.65;1.85;;;;;;;;;;5105743;27;20052;-64
2023/07/08 00:37:20;;;;;;;3.42;2.42;;;;;;;;;;5105411;28;20048;-63
2023/07/08 00:39:46;;;;;;;4.45;2.58;;;;;;;;;;5096459;28;20106;-64
2023/07/08 00:42:17;;;;;;;3.45;2.70;;;;;;;;;;5097078;28;20138;-65
2023/07/08 00:44:44;;;;;;;3.75;2.50;;;;;;;;;;5103950;28;20110;-65
2023/07/08 00:47:12;;;;;;;2.60;2.08;;;;;;;;;;5094945;27;20053;-64
2023/07/08 00:49:58;;;;;;;5.80;2.38;;;;;;;;;;5096828;28;20636;-64
2023/07/08 00:52:24;;;;;;;;;;;;;;;;;;5084983;28;20044;-66
2023/07/08 00:54:55;;;;;;;3.17;2.28;;;;;;;;;;5088629;28;44946;-65
2023/07/08 00:57:23;;;;;;;3.40;2.20;;;;;;;;;;5085836;28;20559;-65
2023/07/08 00:59:54;;;;;;;2.47;2.20;;;;;;;;;;5089854;28;20657;-65
2023/07/08 01:02:22;;;;;;;2.53;2.22;;;;;;;;;;5100432;28;20048;-62
2023/07/08 01:04:57;;;;;;;3.53;2.33;;;;;;;;;;5099483;27;20087;-62
2023/07/08 01:07:25;;;;;;;4.43;2.72;;;;;;;;;;5104630;28;20055;-65
2023/07/08 01:09:55;;;;;;;2.95;2.30;;;;;;;;;;5094138;27;20052;-65
2023/07/08 01:12:25;;;;;;;3.38;2.60;;;;;;;;;;5089172;28;20535;-66
2023/07/08 01:14:53;;;;;;;5.22;2.83;;;;;;;;;;5085466;28;20053;-65
2023/07/08 01:17:21;;;;;;;5.70;2.20;;;;;;;;;;5096396;28;20058;-65
2023/07/08 01:19:48;;;;;;;2.80;2.08;;;;;;;;;;5085252;28;20057;-64
2023/07/08 01:22:15;;;;;;;5.18;2.28;;;;;;;;;;5084871;28;20063;-63
2023/07/08 01:24:42;;;;;;;5.07;2.35;;;;;;;;;;5103192;28;20434;-65
2023/07/08 01:27:11;;;;;;;4.10;2.17;;;;;;;;;;5104837;27;20055;-65
2023/07/08 01:29:38;;;;;;;4.22;2.90;;;;;;;;;;5097604;27;20056;-64
2023/07/08 01:32:05;;;;;;;4.05;2.50;;;;;;;;;;5086229;27;20512;-63
2023/07/08 01:34:33;;;;;;;3.35;2.30;;;;;;;;;;5097437;28;20052;-63
2023/07/08 01:37:01;;;;;;;3.70;2.50;;;;;;;;;;5098107;27;20052;-65
2023/07/08 01:39:29;;;;;;;3.13;2.78;;;;;;;;;;5096937;27;20547;-62
2023/07/08 01:41:56;;;;;;;3.53;2.58;;;;;;;;;;5097020;28;20056;-65
2023/07/08 01:44:30;;;;;;;4.65;2.60;;;;;;;;;;5105029;27;20086;-64
2023/07/08 01:47:00;;;;;;;4.05;2.40;;;;;;;;;;5084906;28;20506;-64
2023/07/08 01:49:26;;;;;;;4.65;2.58;;;;;;;;;;5090729;27;20644;-63
2023/07/08 01:51:53;;;;;;;3.20;2.42;;;;;;;;;;5088300;27;20143;-62
2023/07/08 01:54:19;;;;;;;4.70;2.05;;;;;;;;;;5084570;28;20612;-66
2023/07/08 01:56:46;;;;;;;4.13;2.63;;;;;;;;;;5099912;28;20495;-66
2023/07/08 01:59:12;;;;;;;3.95;2.47;;;;;;;;;;5102114;27;20109;-65
2023/07/08 02:01:39;;;;;;;3.92;2.60;;;;;;;;;;5096064;27;20066;-64
2023/07/08 02:04:05;;;;;;;2.60;2.33;;;;;;;;;;5086265;28;20451;-65
2023/07/08 02:06:32;;;;;;;3.05;2.63;;;;;;;;;;5084830;28;20098;-63
2023/07/08 02:08:58;;;;;;;2.75;2.30;;;;;;;;;;5086440;28;20060;-64
2023/07/08 02:11:25;;;;;;;5.07;2.78;;;;;;;;;;5092484;27;20423;-65
2023/07/08 02:13:51;;;;;;;4.05;2.70;;;;;;;;;;5084519;28;20508;-64
2023/07/08 02:16:18;;;;;;;3.63;2.50;;;;;;;;;;5087901;28;20076;-65
2023/07/08 02:18:44;;;;;;;2.75;2.30;;;;;;;;;;5084458;28;20045;-64
2023/07/08 02:21:12;;;;;;;5.45;2.80;;;;;;;;;;5085823;28;20052;-65
2023/07/08 02:23:39;;;;;;;3.22;2.38;;;;;;;;;;5090660;27;20056;-65
2023/07/08 02:26:05;;;;;;;4.35;2.70;;;;;;;;;;5101908;28;20463;-64
2023/07/08 02:28:32;;;;;;;3.15;2.47;;;;;;;;;;5090813;27;20507;-61
2023/07/08 02:31:01;;;;;;;5.80;2.58;;;;;;;;;;5084437;28;20165;-65
2023/07/08 02:33:32;;;;;;;4.80;2.30;;;;;;;;;;5095648;28;20171;-65
2023/07/08 02:36:00;;;;;;;3.30;3.00;;;;;;;;;;5104949;27;20127;-64
2023/07/08 02:38:27;;;;;;;4.18;2.30;;;;;;;;;;5090053;27;20059;-63
2023/07/08 02:40:53;;;;;;;3.05;2.22;;;;;;;;;;5083966;28;20139;-63
2023/07/08 02:43:20;;;;;;;3.97;2.50;;;;;;;;;;5091467;28;20575;-64
2023/07/08 02:45:48;;;;;;;6.32;2.78;;;;;;;;;;5089592;28;20135;-63
2023/07/08 02:48:15;;;;;;;3.17;2.60;;;;;;;;;;5103081;27;20052;-64
2023/07/08 02:50:41;;;;;;;7.25;2.45;;;;;;;;;;5095324;28;20068;-61
2023/07/08 02:53:08;;;;;;;4.45;2.38;;;;;;;;;;5086498;28;20531;-64
2023/07/08 02:55:35;;;;;;;3.95;2.72;;;;;;;;;;5103704;27;20133;-65
2023/07/08 02:58:01;;;;;;;4.25;2.45;;;;;;;;;;5103863;28;20145;-65
2023/07/08 03:00:28;;;;;;;3.42;2.70;;;;;;;;;;5098724;27;20155;-63
2023/07/08 03:02:54;;;;;;;4.00;2.33;;;;;;;;;;5091074;27;20056;-65
2023/07/08 03:05:21;;;;;;;4.55;2.65;;;;;;;;;;5104669;28;20044;-65
2023/07/08 03:07:47;;;;;;;4.90;2.53;;;;;;;;;;5095701;27;20055;-65
2023/07/08 03:10:14;;;;;;;4.88;3.00;;;;;;;;;;5091537;28;20595;-66
2023/07/08 03:12:40;;;;;;;3.25;2.50;;;;;;;;;;5090762;28;20539;-65
2023/07/08 03:15:07;;;;;;;3.70;2.63;;;;;;;;;;5083755;28;20052;-64
2023/07/08 03:17:33;;;;;;;4.32;2.30;;;;;;;;;;5083405;28;20106;-65
2023/07/08 03:20:00;;;;;;;4.25;2.50;;;;;;;;;;5098054;28;20056;-66
2023/07/08 03:22:26;;;;;;;3.55;2.63;;;;;;;;;;5083641;28;20118;-62
2023/07/08 03:24:53;;;;;;;4.65;2.70;;;;;;;;;;5088720;28;20052;-63
2023/07/08 03:27:20;;;;;;;3.92;2.70;;;;;;;;;;5094381;27;20053;-65
2023/07/08 03:29:47;;;;;;;2.60;2.35;;;;;;;;;;5091779;28;20139;-65
2023/07/08 03:32:13;;;;;;;5.15;2.67;;;;;;;;;;5095283;28;20139;-65
2023/07/08 03:34:40;;;;;;;3.45;2.25;;;;;;;;;;5102785;28;20143;-65
2023/07/08 03:37:08;;;;;;;4.05;2.72;;;;;;;;;;5102403;27;20048;-64
2023/07/08 03:39:35;;;;;;;4.82;2.40;;;;;;;;;;5096049;27;20048;-66
2023/07/08 03:42:01;;;;;;;5.60;3.30;;;;;;;;;;5087286;28;21001;-65
2023/07/08 03:44:28;;;;;;;4.40;2.50;;;;;;;;;;5101937;28;20055;-65
2023/07/08 03:46:54;;;;;;;3.63;2.50;;;;;;;;;;5082582;28;20528;-65
2023/07/08 03:49:23;;;;;;;4.63;2.83;;;;;;;;;;5091068;28;20148;-64
2023/07/08 03:51:51;;;;;;;4.53;2.90;;;;;;;;;;5094952;28;20082;-66
2023/07/08 03:54:18;;;;;;;2.67;2.40;;;;;;;;;;5088880;27;20151;-65
2023/07/08 03:56:45;;;;;;;2.42;2.22;;;;;;;;;;5083152;28;20048;-65
2023/07/08 03:59:11;;;;;;;3.00;2.55;;;;;;;;;;5098898;28;20083;-64
2023/07/08 04:01:40;;;;;;;2.95;2.35;;;;;;;;;;5092575;28;20059;-64
2023/07/08 04:04:10;;;;;;;3.67;2.40;;;;;;;;;;5101905;27;20048;-66
2023/07/08 04:06:36;;;;;;;4.18;2.40;;;;;;;;;;5099134;27;20111;-64
2023/07/08 04:09:03;;;;;;;3.40;2.65;;;;;;;;;;5080543;28;20063;-66
2023/07/08 04:11:30;;;;;;;5.53;2.50;;;;;;;;;;5088239;28;20095;-62
2023/07/08 04:13:56;;;;;;;5.28;2.50;;;;;;;;;;5094806;28;20056;-65
2023/07/08 04:16:24;;;;;;;5.32;2.85;;;;;;;;;;5083338;28;20110;-63
2023/07/08 04:18:53;;;;;;;2.72;2.40;;;;;;;;;;5082513;28;20130;-65
2023/07/08 04:21:20;;;;;;;3.58;2.50;;;;;;;;;;5097917;28;20109;-65
2023/07/08 04:23:49;;;;;;;4.40;2.35;;;;;;;;;;5091139;27;20136;-64
2023/07/08 04:26:15;;;;;;;2.90;2.45;;;;;;;;;;5099226;28;20056;-65
2023/07/08 04:28:42;;;;;;;5.13;2.50;;;;;;;;;;5099298;28;20067;-63
2023/07/08 04:31:08;;;;;;;3.15;2.55;;;;;;;;;;5100389;28;20527;-62
2023/07/08 04:33:35;;;;;;;4.63;2.30;;;;;;;;;;5084888;28;20102;-63
2023/07/08 04:36:02;;;;;;;3.05;2.70;;;;;;;;;;5101830;28;20070;-65
2023/07/08 04:38:29;;;;;;;4.70;2.88;;;;;;;;;;5102459;27;20135;-64
2023/07/08 04:40:57;;;;;;;4.28;2.80;;;;;;;;;;5093702;28;20064;-64
2023/07/08 04:43:28;;;;;;;9.85;2.80;;;;;;;;;;5087357;28;20496;-65
2023/07/08 04:45:55;;;;;;;7.80;4.25;;;;;;;;;;5101843;27;20056;-64
2023/07/08 04:48:24;;;;;;;5.72;2.53;;;;;;;;;;5080995;28;20171;-64
2023/07/08 04:50:52;;;;;;;4.38;2.50;;;;;;;;;;5098862;28;20074;-63
2023/07/08 04:53:18;;;;;;;5.03;2.53;;;;;;;;;;5102140;27;20057;-62
2023/07/08 04:55:47;;;;;;;4.43;2.92;;;;;;;;;;5094315;27;20048;-62
2023/07/08 04:58:14;;;;;;;4.68;2.72;;;;;;;;;;5081819;28;20056;-64
2023/07/08 05:00:40;;;;;;;6.68;2.78;;;;;;;;;;5096288;28;20466;-64
2023/07/08 05:03:07;;;;;;;4.10;2.60;;;;;;;;;;5086878;28;20057;-60
2023/07/08 05:05:33;;;;;;;9.30;3.10;;;;;;;;;;5098857;28;20052;-61
2023/07/08 05:08:00;;;;;;;3.67;2.60;;;;;;;;;;5102013;27;20051;-61
2023/07/08 05:10:27;;;;;;;5.75;2.83;;;;;;;;;;5102356;27;20076;-62
2023/07/08 05:12:53;;;;;;;3.88;2.50;;;;;;;;;;5100720;27;20056;-61
2023/07/08 05:15:20;;;;;;;4.55;3.05;;;;;;;;;;5087948;28;20061;-59
2023/07/08 05:17:46;;;;;;;3.08;2.55;;;;;;;;;;5081866;28;20608;-60
2023/07/08 05:20:14;;;;;;;5.90;2.85;;;;;;;;;;5084394;28;20048;-62
2023/07/08 05:22:42;;;;;;;3.22;2.83;;;;;;;;;;5085795;28;20585;-62
2023/07/08 05:25:09;;;;;;;3.50;2.72;;;;;;;;;;5090513;28;20083;-58
2023/07/08 05:27:35;;;;;;;3.80;2.30;;;;;;;;;;5105420;27;20487;-61
2023/07/08 05:30:02;;;;;;;2.70;2.10;;;;;;;;;;5090898;27;20140;-60
2023/07/08 05:32:29;;;;;;;5.43;2.70;;;;;;;;;;5090218;28;20056;-60
2023/07/08 05:34:55;;;;;;;5.30;2.50;;;;;;;;;;5102835;28;20075;-58
2023/07/08 05:37:24;;;;;;;3.20;2.67;;;;;;;;;;5105395;28;20048;-61
2023/07/08 05:39:52;;;;;;;4.80;2.95;;;;;;;;;;5098772;27;20083;-60
2023/07/08 05:42:20;;;;;;;4.43;2.63;;;;;;;;;;5089413;28;20407;-59
2023/07/08 05:44:46;;;;;;;5.65;3.33;;;;;;;;;;5085817;28;20114;-61
2023/07/08 05:47:13;;;;;;;3.15;2.17;;;;;;;;;;5087606;28;20087;-59
2023/07/08 05:49:39;;;;;;;5.72;2.50;;;;;;;;;;5098361;28;20267;-60
2023/07/08 05:52:10;;;;;;;2.80;2.50;;;;;;;;;;5085522;28;20064;-61
2023/07/08 05:54:40;;;;;;;4.75;2.67;;;;;;;;;;5086571;28;20056;-62
2023/07/08 05:57:07;;;;;;;3.38;2.78;;;;;;;;;;5095671;28;20083;-62
2023/07/08 05:59:35;;;;;;;3.83;2.47;;;;;;;;;;5091656;28;20052;-61
2023/07/08 06:02:02;;;;;;;2.40;2.15;;;;;;;;;;5092610;27;20110;-60
2023/07/08 06:04:30;;;;;;;6.53;2.67;;;;;;;;;;5088863;28;20147;-60
2023/07/08 06:06:57;;;;;;;2.42;2.22;;;;;;;;;;5094531;28;20052;-60
2023/07/08 06:09:24;;;;;;;3.45;2.65;;;;;;;;;;5104065;28;20048;-61
2023/07/08 06:11:50;;;;;;;3.50;2.45;;;;;;;;;;5097222;28;20090;-62
2023/07/08 06:14:17;;;;;;;3.85;2.83;;;;;;;;;;5096170;27;20109;-60
2023/07/08 06:16:43;;;;;;;4.18;2.58;;;;;;;;;;5101058;28;20086;-62
2023/07/08 06:19:10;;;;;;;3.90;2.90;;;;;;;;;;5090563;27;20488;-61
2023/07/08 06:21:36;;;;;;;2.35;2.10;;;;;;;;;;5086909;27;20582;-60
2023/07/08 06:24:04;;;;;;;2.33;2.08;;;;;;;;;;5089546;28;20056;-59
2023/07/08 06:26:30;;;;;;;3.95;2.42;;;;;;;;;;5093019;28;20532;-61
2023/07/08 06:28:56;;;;;;;4.57;2.38;;;;;;;;;;5091781;28;20052;-61
2023/07/08 06:31:23;;;;;;;3.58;2.28;;;;;;;;;;5100948;28;20051;-60
2023/07/08 06:33:49;;;;;;;5.53;2.85;;;;;;;;;;5095477;27;20103;-62
2023/07/08 06:36:15;;;;;;;4.05;2.55;;;;;;;;;;5099890;28;20089;-61
2023/07/08 06:38:42;;;;;;;3.88;2.97;;;;;;;;;;5094671;28;20602;-58
2023/07/08 06:41:08;;;;;;;5.20;2.63;;;;;;;;;;5090335;28;20951;-61
2023/07/08 06:43:35;;;;;;;5.93;2.60;;;;;;;;;;5105391;27;20044;-62
2023/07/08 06:46:01;;;;;;;5.10;2.78;;;;;;;;;;5104673;28;20557;-63
2023/07/08 06:48:28;;;;;;;3.75;2.97;;;;;;;;;;5104680;27;20416;-62
2023/07/08 06:50:54;;;;;;;3.40;2.70;;;;;;;;;;5095465;27;20158;-58
2023/07/08 06:53:21;;;;;;;3.17;2.58;;;;;;;;;;5091943;27;20080;-61
2023/07/08 06:55:47;;;;;;;3.25;2.75;;;;;;;;;;5098168;28;20104;-60
2023/07/08 06:58:13;;;;;;;3.17;2.38;;;;;;;;;;5082446;28;21121;-62
2023/07/08 07:00:44;;;;;;;4.60;2.85;;;;;;;;;;5088176;28;20061;-58
2023/07/08 07:03:11;;;;;;;5.32;3.03;;;;;;;;;;5089904;28;20601;-61
2023/07/08 07:05:38;;;;;;;4.63;2.85;;;;;;;;;;5087488;28;20056;-61
2023/07/08 07:08:05;;;;;;;3.88;2.50;;;;;;;;;;5090190;28;20062;-59
2023/07/08 07:10:31;;;;;;;7.60;3.45;;;;;;;;;;5095456;27;20091;-64
2023/07/08 07:12:59;;;;;;;3.15;2.42;;;;;;;;;;5084127;28;20062;-61
2023/07/08 07:15:26;;;;;;;3.55;2.38;;;;;;;;;;5083831;28;20079;-68
2023/07/08 07:17:52;;;;;;;6.47;2.85;;;;;;;;;;5082762;28;20088;-67
2023/07/08 07:20:19;;;;;;;3.38;2.63;;;;;;;;;;5087100;28;20057;-67
2023/07/08 07:22:45;;;;;;;4.18;2.83;;;;;;;;;;5083564;28;20536;-66
2023/07/08 07:25:12;;;;;;;4.57;2.85;;;;;;;;;;5084040;28;20056;-67
2023/07/08 07:27:38;;;;;;;5.70;3.35;;;;;;;;;;5102835;28;20056;-67
2023/07/08 07:30:05;;;;;;;4.13;2.72;;;;;;;;;;5099386;27;20063;-63
2023/07/08 07:32:33;;;;;;;6.30;2.67;;;;;;;;;;5083840;28;20131;-62
2023/07/08 07:35:00;;;;;;;3.50;2.55;;;;;;;;;;5084238;28;20056;-62
2023/07/08 07:37:26;;;;;;;7.18;2.67;;;;;;;;;;5083584;28;20056;-66
2023/07/08 07:39:53;;;;;;;3.10;2.20;;;;;;;;;;5089843;28;20060;-66
2023/07/08 07:42:20;;;;;;;2.90;2.15;;;;;;;;;;5103008;27;20052;-65
2023/07/08 07:44:46;;;;;;;2.72;2.30;;;;;;;;;;5096208;28;20091;-65
2023/07/08 07:47:13;;;;;;;4.55;2.65;;;;;;;;;;5083470;28;20062;-64
2023/07/08 07:49:39;;;;;;;4.80;2.53;;;;;;;;;;5101407;28;20056;-65
2023/07/08 07:52:06;;;;;;;3.33;2.78;;;;;;;;;;5100667;28;20054;-64
2023/07/08 07:54:32;;;;;;;4.22;2.90;;;;;;;;;;5083213;28;20570;-64
2023/07/08 07:56:59;;;;;;;4.10;2.60;;;;;;;;;;5082758;28;20936;-65
2023/07/08 07:59:25;;;;;;;3.75;2.70;;;;;;;;;;5101718;28;20055;-64
2023/07/08 08:01:51;;;;;;;6.22;2.58;;;;;;;;;;5092063;27;20599;-65
2023/07/08 08:04:18;;;;;;;3.35;2.70;;;;;;;;;;5087857;28;20122;-66
2023/07/08 08:06:44;;;;;;;5.88;2.97;;;;;;;;;;5083093;28;20388;-61
2023/07/08 08:09:11;;;;;;;5.75;3.17;;;;;;;;;;5083258;28;20512;-65
2023/07/08 08:11:37;;;;;;;3.05;2.72;;;;;;;;;;5082696;28;20145;-67
2023/07/08 08:14:04;;;;;;;3.28;2.72;;;;;;;;;;5083047;28;20052;-65
2023/07/08 08:16:31;;;;;;;5.60;2.72;;;;;;;;;;5083660;28;20059;-64
2023/07/08 08:18:57;;;;;;;3.42;2.78;;;;;;;;;;5092377;28;20129;-65
2023/07/08 08:21:24;;;;;;;3.85;2.75;;;;;;;;;;5103408;28;20052;-66
2023/07/08 08:23:50;;;;;;;3.90;2.90;;;;;;;;;;5104169;28;20051;-65
2023/07/08 08:26:16;;;;;;;4.63;3.20;;;;;;;;;;5102865;27;20048;-64
2023/07/08 08:28:43;;;;;;;4.25;3.00;;;;;;;;;;5103444;28;20048;-66
2023/07/08 08:31:09;;;;;;;3.92;3.20;;;;;;;;;;5103462;28;20483;-65
2023/07/08 08:33:36;;;;;;;4.03;2.75;;;;;;;;;;5089414;28;20515;-66
2023/07/08 08:36:02;;;;;;;4.80;3.10;;;;;;;;;;5082409;28;20045;-64
2023/07/08 08:38:29;;;;;;;2.88;2.50;;;;;;;;;;5083106;28;20152;-64
2023/07/08 08:40:56;;;;;;;5.10;3.35;;;;;;;;;;5082299;28;20055;-66
2023/07/08 08:43:24;;;;;;;5.00;3.33;;;;;;;;;;5082970;28;20114;-67
2023/07/08 08:46:04;;;;;;;3.40;3.08;;;;;;;;;;5081196;28;20508;-65
2023/07/08 08:48:32;;;;;;;6.22;3.38;;;;;;;;;;5091177;28;20052;-64
2023/07/08 08:51:02;;;;;;;3.55;2.97;;;;;;;;;;5101911;27;20507;-68
2023/07/08 08:53:28;;;;;;;3.65;3.13;;;;;;;;;;5103524;27;20052;-66
2023/07/08 08:56:24;;;;;;;4.35;3.20;;;;;;;;;;5106000;28;20580;-65
2023/07/08 08:58:54;;;;;;;5.97;3.22;;;;;;;;;;5021031;28;20064;-67
2023/07/08 09:01:20;;;;;;;4.80;3.22;;;;;;;;;;5014677;28;20090;-64
2023/07/08 09:03:50;;;;;;;9.77;4.40;;;;;;;;;;5002967;28;20061;-65
2023/07/08 09:06:19;;;;;;;5.05;3.30;;;;;;;;;;5002943;28;20061;-67
2023/07/08 09:08:47;;;;;;;5.25;2.97;;;;;;;;;;5002569;28;20096;-66
2023/07/08 09:11:13;;;;;;;11.57;3.42;;;;;;;;;;5003079;28;20069;-66
2023/07/08 09:13:39;;;;;;;6.15;3.55;;;;;;;;;;5003311;28;20609;-65
2023/07/08 09:16:09;;;;;;;4.05;3.00;;;;;;;;;;5004085;28;20050;-65
2023/07/08 09:19:02;;;;;;;5.65;3.22;;;;;;;;;;4987218;28;20145;-66
2023/07/08 09:21:36;;;;;;;5.53;3.33;;;;;;;;;;5001032;28;20218;-63
2023/07/08 09:24:07;;;;;;;4.63;3.55;;;;;;;;;;5015183;28;20057;-62
2023/07/08 09:26:34;;;;;;;7.50;3.75;;;;;;;;;;5022431;28;20081;-65
2023/07/08 09:29:00;;;;;;;6.05;3.05;;;;;;;;;;5021472;28;20090;-64
2023/07/08 09:31:28;;;;;;;7.32;4.10;;;;;;;;;;5022511;28;20088;-65
2023/07/08 09:34:24;;;;;;;4.35;3.00;;;;;;;;;;5022352;28;20064;-64
2023/07/08 09:36:51;;;;;;;4.63;3.35;;;;;;;;;;5076773;28;20044;-66
2023/07/08 09:39:18;;;;;;;5.63;3.80;;;;;;;;;;5085473;28;20052;-63
2023/07/08 09:41:46;;;;;;;7.88;3.85;;;;;;;;;;5086272;28;20044;-63
2023/07/08 09:44:15;;;;;;;6.15;3.75;;;;;;;;;;5085484;28;20143;-65
2023/07/08 09:46:41;;;;;;;5.60;3.70;;;;;;;;;;5086757;28;20471;-66
2023/07/08 09:49:16;;;;;;;5.90;3.53;;;;;;;;;;5106151;27;20159;-66
2023/07/08 09:51:42;;;;;;;5.68;4.03;;;;;;;;;;5094442;27;20098;-64
2023/07/08 09:54:09;;;;;;;5.28;3.72;;;;;;;;;;5088882;28;20086;-62
2023/07/08 09:56:38;;;;;;;5.75;4.13;;;;;;;;;;5103831;27;20063;-64
2023/07/08 09:59:05;;;;;;;4.70;4.07;;;;;;;;;;5105833;27;20056;-64
2023/07/08 10:01:32;;;;;;;4.50;3.90;;;;;;;;;;5103239;27;20558;-65
2023/07/08 10:03:59;;;;;;;9.18;4.38;;;;;;;;;;5093932;28;20129;-66
2023/07/08 10:06:27;;;;;;;7.47;4.38;;;;;;;;;;5101488;27;20084;-66
2023/07/08 10:08:54;;;;;;;8.65;4.15;;;;;;;;;;5095113;27;20048;-66
2023/07/08 10:11:24;;;;;;;8.15;4.45;;;;;;;;;;5088804;27;20582;-66
2023/07/08 10:13:52;;;;;;;8.38;4.30;;;;;;;;;;5086507;28;20052;-65
2023/07/08 10:16:39;;;;;;;4.57;3.80;;;;;;;;;;5084376;28;20483;-63
2023/07/08 10:19:12;;;;;;;8.00;4.40;;;;;;;;;;5085184;28;20125;-64
2023/07/08 10:21:42;;;;;;;6.70;4.35;;;;;;;;;;5085267;28;20057;-65
2023/07/08 10:24:08;;;;;;;5.18;4.00;;;;;;;;;;5085121;28;20622;-66
2023/07/08 10:26:35;;;;;;;6.60;4.22;;;;;;;;;;5085212;28;20502;-65
2023/07/08 10:29:14;;;;;;;9.80;5.32;;;;;;;;;;5085231;27;20072;-65
2023/07/08 10:31:55;;;;;;;7.30;4.38;;;;;;;;;;5088037;28;20102;-66
2023/07/08 10:34:41;;;;;;;6.32;4.55;;;;;;;;;;5103741;28;20136;-66
2023/07/08 10:37:14;;;;;;;9.43;4.80;;;;;;;;;;5096526;28;20049;-65
2023/07/08 10:39:50;;;;;;;8.02;4.60;;;;;;;;;;5084658;28;20049;-66
2023/07/08 10:42:17;;;;;;;6.05;4.65;;;;;;;;;;5087839;28;20508;-66
2023/07/08 10:44:43;;;;;;;5.28;4.72;;;;;;;;;;5090097;28;20145;-65
2023/07/08 10:47:28;;;;;;;5.90;4.40;;;;;;;;;;5095091;28;20497;-63
2023/07/08 10:50:16;;;;;;;6.30;4.38;;;;;;;;;;5091641;28;20049;-64
2023/07/08 10:52:49;;;;;;;6.28;4.45;;;;;;;;;;5084240;28;20171;-64
2023/07/08 10:55:48;;;;;;;7.80;5.32;;;;;;;;;;5082672;28;20602;-65
2023/07/08 10:58:27;;;;;;;5.88;4.30;;;;;;;;;;5053349;27;20106;-63
2023/07/08 11:00:54;;;;;;;8.48;4.97;;;;;;;;;;5088999;28;20057;-64
2023/07/08 11:03:20;;;;;;;6.07;4.60;;;;;;;;;;5094391;28;20067;-65
2023/07/08 11:05:55;;;;;;;5.85;4.28;;;;;;;;;;5090365;27;20053;-66
2023/07/08 11:08:30;;;;;;;6.75;4.78;;;;;;;;;;5095063;27;20635;-66
2023/07/08 11:10:59;;;;;;;5.00;4.15;;;;;;;;;;5094152;27;20048;-65
2023/07/08 11:13:34;;;;;;;6.53;4.57;;;;;;;;;;5097941;27;20097;-64
2023/07/08 11:16:07;;;;;;;6.20;4.75;;;;;;;;;;5082028;27;20067;-65
2023/07/08 11:18:34;;;;;;;6.95;4.85;;;;;;;;;;5092829;27;20056;-66
2023/07/08 11:21:10;;;;;;;5.70;4.95;;;;;;;;;;5102184;27;20585;-65
2023/07/08 11:23:40;;;;;;;6.20;4.63;;;;;;;;;;5092577;27;20278;-65
2023/07/08 11:26:27;;;;;;;7.40;4.50;;;;;;;;;;5102080;27;20135;-65
2023/07/08 11:28:56;;;;;;;5.95;4.43;;;;;;;;;;5096941;27;20431;-63
2023/07/08 11:31:23;;;;;;;6.35;4.60;;;;;;;;;;5103408;27;20119;-65
2023/07/08 11:33:50;;;;;;;8.35;4.63;;;;;;;;;;5102214;27;20521;-65
2023/07/08 11:36:17;;;;;;;7.70;4.72;;;;;;;;;;5099886;27;20518;-65
2023/07/08 11:38:50;;;;;;;6.45;4.68;;;;;;;;;;5104097;27;20234;-65
2023/07/08 11:41:19;;;;;;;6.20;4.60;;;;;;;;;;5093276;27;20413;-66
2023/07/08 11:43:50;;;;;;;4.85;4.35;;;;;;;;;;5093455;27;20142;-64
2023/07/08 11:46:25;;;;;;;13.90;4.68;;;;;;;;;;5099335;27;20572;-66
2023/07/08 11:48:52;;;;;;;6.80;4.88;;;;;;;;;;5099717;27;20052;-66
2023/07/08 11:51:20;;;;;;;5.53;4.45;;;;;;;;;;5102979;27;20543;-65
2023/07/08 11:53:48;;;;;;;6.22;5.03;;;;;;;;;;5102377;27;20076;-66
2023/07/08 11:56:20;;;;;;;10.10;4.72;;;;;;;;;;5110212;27;20427;-64
2023/07/08 11:58:52;;;;;;;8.27;4.90;;;;;;;;;;5088615;27;20057;-66
2023/07/08 12:01:31;;;;;;;4.70;4.20;;;;;;;;;;5102984;27;20565;-64
2023/07/08 12:04:01;;;;;;;5.45;4.68;;;;;;;;;;5085642;27;20059;-65
2023/07/08 12:06:28;;;;;;;11.90;5.07;;;;;;;;;;5106969;27;20047;-65
2023/07/08 12:08:55;;;;;;;8.40;3.95;;;;;;;;;;5087457;27;20099;-65
2023/07/08 12:11:35;;;;;;;7.03;4.63;;;;;;;;;;5097077;28;20285;-64
2023/07/08 12:14:03;;;;;;;4.93;4.28;;;;;;;;;;5096952;27;20040;-63
2023/07/08 12:16:31;;;;;;;5.20;4.20;;;;;;;;;;5097082;27;20052;-65
2023/07/08 12:18:59;;;;;;;6.53;4.45;;;;;;;;;;5090040;27;20121;-65
2023/07/08 12:21:27;;;;;;;6.80;4.75;;;;;;;;;;5088360;27;20127;-65
2023/07/08 12:23:54;;;;;;;6.22;4.75;;;;;;;;;;5100174;27;20403;-65
2023/07/08 12:26:21;;;;;;;5.88;4.78;;;;;;;;;;5092150;27;20169;-64
2023/07/08 12:28:48;;;;;;;7.65;4.22;;;;;;;;;;5086177;27;20056;-64
2023/07/08 12:31:14;;;;;;;7.38;4.78;;;;;;;;;;5083036;28;20118;-63
2023/07/08 12:33:40;;;;;;;6.15;4.45;;;;;;;;;;5085865;28;20053;-65
2023/07/08 12:36:10;;;;;;;9.27;4.68;;;;;;;;;;5080744;28;20103;-64
2023/07/08 12:38:41;;;;;;;7.50;4.78;;;;;;;;;;5088006;28;20052;-65
2023/07/08 12:41:27;;;;;;;5.72;4.28;;;;;;;;;;5081403;28;20620;-62
2023/07/08 12:43:55;;;;;;;8.68;5.07;;;;;;;;;;5082158;28;20060;-65
2023/07/08 12:46:22;;;;;;;7.30;4.97;;;;;;;;;;5082404;27;20150;-66
2023/07/08 12:48:48;;;;;;;10.85;5.25;;;;;;;;;;5082166;27;20062;-65
2023/07/08 12:51:16;;;;;;;7.53;5.00;;;;;;;;;;5081991;28;20117;-64
2023/07/08 12:53:43;;;;;;;9.55;4.90;;;;;;;;;;5082669;28;20048;-66
2023/07/08 12:56:10;;;;;;;9.68;4.60;;;;;;;;;;5088834;27;20058;-63
2023/07/08 12:58:39;;;;;;;7.20;4.93;;;;;;;;;;5102628;27;20511;-63
2023/07/08 13:01:06;;;;;;;8.63;5.28;;;;;;;;;;5098529;27;20143;-64
2023/07/08 13:03:40;;;;;;;5.65;4.35;;;;;;;;;;5099126;28;20056;-65
2023/07/08 13:06:09;;;;;;;6.57;4.65;;;;;;;;;;5089393;27;20055;-65
2023/07/08 13:08:36;;;;;;;6.07;4.60;;;;;;;;;;5091804;27;20143;-62
2023/07/08 13:11:06;;;;;;;8.15;4.25;;;;;;;;;;5104727;27;20060;-64
2023/07/08 13:13:42;;;;;;;6.30;4.53;;;;;;;;;;5095531;28;20110;-64
2023/07/08 13:16:10;;;;;;;6.57;4.53;;;;;;;;;;5092598;27;20063;-65
2023/07/08 13:18:38;;;;;;;6.60;4.63;;;;;;;;;;5095877;27;20105;-64
2023/07/08 13:21:06;;;;;;;5.22;4.35;;;;;;;;;;5110921;27;20558;-64
2023/07/08 13:23:34;;;;;;;8.38;4.80;;;;;;;;;;5090835;27;20143;-64
2023/07/08 13:26:00;;;;;;;5.82;4.63;;;;;;;;;;5098149;27;20048;-64
2023/07/08 13:28:36;;;;;;;6.85;4.47;;;;;;;;;;5088036;27;20154;-63
2023/07/08 13:31:13;;;;;;;10.50;4.38;;;;;;;;;;5085944;27;20142;-64
2023/07/08 13:33:44;;;;;;;7.65;4.97;;;;;;;;;;5097480;27;20144;-63
2023/07/08 13:36:10;;;;;;;5.38;4.43;;;;;;;;;;5107407;27;20577;-65
2023/07/08 13:38:38;;;;;;;5.72;4.07;;;;;;;;;;5094137;27;20052;-63
2023/07/08 13:41:05;;;;;;;7.35;4.63;;;;;;;;;;5102026;27;20131;-64
2023/07/08 13:43:33;;;;;;;7.55;4.30;;;;;;;;;;5108403;27;20051;-65
2023/07/08 13:45:59;;;;;;;6.30;4.10;;;;;;;;;;5096129;27;20152;-64
2023/07/08 13:48:40;;;;;;;5.45;4.40;;;;;;;;;;5100047;27;20063;-65
2023/07/08 13:51:14;;;;;;;5.65;3.85;;;;;;;;;;5093727;27;20144;-58
2023/07/08 14:10:30;;;;;;;8.13;6.43;;;;;;;;;;5158207;27;20896;-58
2023/07/08 14:12:57;;;;;;;7.35;5.13;;;;;;;;;;5139362;27;20097;-58
2023/07/08 14:15:24;;;;;;;7.15;5.40;;;;;;;;;;5139146;27;20055;-60
2023/07/08 14:17:51;;;;;;;7.90;4.13;;;;;;;;;;5134811;27;20555;-59
2023/07/08 14:20:18;;;;;;;5.90;4.00;;;;;;;;;;5137282;27;20055;-59
2023/07/08 14:22:45;;;;;;;5.07;3.80;;;;;;;;;;5115060;27;20512;-57
2023/07/08 14:25:13;;;;;;;7.88;4.38;;;;;;;;;;5138774;27;20505;-59
2023/07/08 14:27:40;;;;;;;7.63;4.63;;;;;;;;;;5139942;27;20051;-59
2023/07/08 14:30:09;;;;;;;4.93;4.10;;;;;;;;;;5139060;27;20079;-56
2023/07/08 14:32:36;;;;;;;8.63;4.35;;;;;;;;;;5140628;27;20120;-61
2023/07/08 14:35:22;;;;;;;7.50;4.05;;;;;;;;;;5139440;27;20059;-59
2023/07/08 14:37:49;;;;;;;9.02;4.30;;;;;;;;;;5132939;27;20085;-59
2023/07/08 14:40:15;;;;;;;7.93;4.07;;;;;;;;;;5135009;27;20560;-59
2023/07/08 14:42:42;;;;;;;5.75;4.40;;;;;;;;;;5135272;27;20058;-56
2023/07/08 14:45:08;;;;;;;6.45;4.50;;;;;;;;;;5139455;27;20465;-61
2023/07/08 14:47:35;;;;;;;8.00;4.05;;;;;;;;;;5138884;27;20617;-60
2023/07/08 14:50:10;;;;;;;8.20;5.05;;;;;;;;;;5140288;27;20047;-58
2023/07/08 14:52:36;;;;;;;6.65;4.13;;;;;;;;;;5131459;27;20055;-57
2023/07/08 14:55:03;;;;;;;6.15;3.90;;;;;;;;;;5128166;27;20501;-57
2023/07/08 14:57:32;;;;;;;5.18;4.25;;;;;;;;;;5127300;27;20131;-59
2023/07/08 14:59:59;;;;;;;6.20;4.07;;;;;;;;;;5132035;27;20109;-57
2023/07/08 15:02:26;;;;;;;10.02;4.30;;;;;;;;;;5114126;27;20138;-57
2023/07/08 15:04:53;;;;;;;6.70;4.65;;;;;;;;;;5136400;27;20047;-58
2023/07/08 15:07:20;;;;;;;6.60;4.60;;;;;;;;;;5133035;27;20138;-59